sensor_id;sensor_type;location;lat;lon;timestamp;P1;durP1;ratioP1;P2;durP2;ratioP2
35971;SDS011;22052;0.000;0.000;2023-03-23T00:01:31;10.98;;;1.23;;
35971;SDS011;22052;0.000;0.000;2023-03-23T00:04:02;6.43;;;1.40;;
35971;SDS011;22052;0.000;0.000;2023-03-23T00:06:28;5.82;;;1.10;;
35971;SDS011;22052;0.000;0.000;2023-03-23T00:08:58;3.25;;;1.40;;
35971;SDS011;22052;0.000;0.000;2023-03-23T00:11:34;3.15;;;1.20;;
35971;SDS011;22052;0.000;0.000;2023-03-23T00:14:00;3.83;;;0.90;;
35971;SDS011;22052;0.000;0.000;2023-03-23T00:16:27;1.95;;;0.90;;
35971;SDS011;22052;0.000;0.000;2023-03-23T00:19:00;5.03;;;1.10;;
35971;SDS011;22052;0.000;0.000;2023-03-23T00:21:34;8.40;;;1.63;;
35971;SDS011;22052;0.000;0.000;2023-03-23T00:26:34;5.03;;;1.85;;
35971;SDS011;22052;0.000;0.000;2023-03-23T00:29:01;4.60;;;1.10;;
35971;SDS011;22052;0.000;0.000;2023-03-23T00:31:28;6.07;;;1.27;;
35971;SDS011;22052;0.000;0.000;2023-03-23T00:33:57;5.45;;;1.30;;
35971;SDS011;22052;0.000;0.000;2023-03-23T00:36:23;4.15;;;1.30;;
35971;SDS011;22052;0.000;0.000;2023-03-23T00:38:51;2.85;;;1.13;;
35971;SDS011;22052;0.000;0.000;2023-03-23T00:41:17;4.07;;;0.95;;
35971;SDS011;22052;0.000;0.000;2023-03-23T00:43:43;3.47;;;1.08;;
35971;SDS011;22052;0.000;0.000;2023-03-23T00:46:09;4.03;;;1.23;;
35971;SDS011;22052;0.000;0.000;2023-03-23T00:48:36;2.28;;;0.85;;
35971;SDS011;22052;0.000;0.000;2023-03-23T00:51:09;3.38;;;1.02;;
35971;SDS011;22052;0.000;0.000;2023-03-23T00:53:35;3.92;;;1.20;;
35971;SDS011;22052;0.000;0.000;2023-03-23T00:56:02;5.93;;;1.10;;
35971;SDS011;22052;0.000;0.000;2023-03-23T00:58:28;3.42;;;1.10;;
35971;SDS011;22052;0.000;0.000;2023-03-23T01:00:54;3.13;;;1.10;;
35971;SDS011;22052;0.000;0.000;2023-03-23T01:03:21;3.60;;;1.23;;
35971;SDS011;22052;0.000;0.000;2023-03-23T01:05:50;2.28;;;0.98;;
35971;SDS011;22052;0.000;0.000;2023-03-23T01:08:17;2.33;;;1.00;;
35971;SDS011;22052;0.000;0.000;2023-03-23T01:10:44;3.63;;;1.05;;
35971;SDS011;22052;0.000;0.000;2023-03-23T01:13:10;2.75;;;0.90;;
35971;SDS011;22052;0.000;0.000;2023-03-23T01:15:37;2.95;;;1.05;;
35971;SDS011;22052;0.000;0.000;2023-03-23T01:18:03;3.45;;;1.17;;
35971;SDS011;22052;0.000;0.000;2023-03-23T01:20:30;2.78;;;1.20;;
35971;SDS011;22052;0.000;0.000;2023-03-23T01:22:57;2.00;;;1.02;;
35971;SDS011;22052;0.000;0.000;2023-03-23T01:25:35;4.50;;;1.20;;
35971;SDS011;22052;0.000;0.000;2023-03-23T01:28:01;2.45;;;0.80;;
35971;SDS011;22052;0.000;0.000;2023-03-23T01:30:27;2.90;;;1.13;;
35971;SDS011;22052;0.000;0.000;2023-03-23T01:32:54;4.47;;;1.27;;
35971;SDS011;22052;0.000;0.000;2023-03-23T01:35:20;3.35;;;0.80;;
35971;SDS011;22052;0.000;0.000;2023-03-23T01:37:47;1.63;;;0.82;;
35971;SDS011;22052;0.000;0.000;2023-03-23T01:40:14;4.05;;;0.85;;
35971;SDS011;22052;0.000;0.000;2023-03-23T01:42:40;2.70;;;0.93;;
35971;SDS011;22052;0.000;0.000;2023-03-23T01:47:46;1.83;;;0.75;;
35971;SDS011;22052;0.000;0.000;2023-03-23T01:50:13;2.08;;;0.90;;
35971;SDS011;22052;0.000;0.000;2023-03-23T01:52:39;3.13;;;1.17;;
35971;SDS011;22052;0.000;0.000;2023-03-23T01:55:06;3.15;;;0.80;;
35971;SDS011;22052;0.000;0.000;2023-03-23T01:57:33;3.33;;;0.82;;
35971;SDS011;22052;0.000;0.000;2023-03-23T02:00:01;2.08;;;0.80;;
35971;SDS011;22052;0.000;0.000;2023-03-23T02:02:33;2.97;;;1.15;;
35971;SDS011;22052;0.000;0.000;2023-03-23T02:05:02;2.97;;;1.00;;
35971;SDS011;22052;0.000;0.000;2023-03-23T02:07:30;1.67;;;0.90;;
35971;SDS011;22052;0.000;0.000;2023-03-23T02:09:57;3.08;;;0.95;;
35971;SDS011;22052;0.000;0.000;2023-03-23T02:12:24;2.00;;;0.70;;
35971;SDS011;22052;0.000;0.000;2023-03-23T02:14:51;2.40;;;0.93;;
35971;SDS011;22052;0.000;0.000;2023-03-23T02:17:26;2.42;;;1.00;;
35971;SDS011;22052;0.000;0.000;2023-03-23T02:20:00;3.03;;;1.10;;
35971;SDS011;22052;0.000;0.000;2023-03-23T02:33:28;2.92;;;0.90;;
35971;SDS011;22052;0.000;0.000;2023-03-23T02:36:14;1.25;;;0.70;;
35971;SDS011;22052;0.000;0.000;2023-03-23T02:38:50;2.33;;;0.70;;
35971;SDS011;22052;0.000;0.000;2023-03-23T02:41:21;1.30;;;0.70;;
35971;SDS011;22052;0.000;0.000;2023-03-23T02:43:48;3.22;;;0.90;;
35971;SDS011;22052;0.000;0.000;2023-03-23T02:46:15;2.45;;;0.80;;
35971;SDS011;22052;0.000;0.000;2023-03-23T02:48:42;2.97;;;0.90;;
35971;SDS011;22052;0.000;0.000;2023-03-23T02:51:10;2.25;;;0.80;;
35971;SDS011;22052;0.000;0.000;2023-03-23T02:53:37;2.83;;;0.70;;
35971;SDS011;22052;0.000;0.000;2023-03-23T02:56:04;1.70;;;0.93;;
35971;SDS011;22052;0.000;0.000;2023-03-23T02:58:32;1.58;;;0.90;;
35971;SDS011;22052;0.000;0.000;2023-03-23T03:00:59;1.63;;;0.77;;
35971;SDS011;22052;0.000;0.000;2023-03-23T03:03:26;1.60;;;0.80;;
35971;SDS011;22052;0.000;0.000;2023-03-23T03:08:44;2.45;;;0.88;;
35971;SDS011;22052;0.000;0.000;2023-03-23T03:11:12;0.90;;;0.73;;
35971;SDS011;22052;0.000;0.000;2023-03-23T03:13:45;1.80;;;1.00;;
35971;SDS011;22052;0.000;0.000;2023-03-23T03:21:24;1.20;;;0.70;;
35971;SDS011;22052;0.000;0.000;2023-03-23T03:23:52;2.25;;;1.00;;
35971;SDS011;22052;0.000;0.000;2023-03-23T03:26:21;2.78;;;0.90;;
35971;SDS011;22052;0.000;0.000;2023-03-23T03:28:52;2.95;;;0.90;;
35971;SDS011;22052;0.000;0.000;2023-03-23T03:31:20;2.45;;;0.90;;
35971;SDS011;22052;0.000;0.000;2023-03-23T03:33:47;1.58;;;0.90;;
35971;SDS011;22052;0.000;0.000;2023-03-23T03:36:17;1.52;;;0.70;;
35971;SDS011;22052;0.000;0.000;2023-03-23T03:38:45;2.25;;;0.85;;
35971;SDS011;22052;0.000;0.000;2023-03-23T03:41:12;2.10;;;0.70;;
35971;SDS011;22052;0.000;0.000;2023-03-23T03:43:38;1.73;;;0.70;;
35971;SDS011;22052;0.000;0.000;2023-03-23T03:46:04;1.15;;;0.70;;
35971;SDS011;22052;0.000;0.000;2023-03-23T03:48:31;1.83;;;0.75;;
35971;SDS011;22052;0.000;0.000;2023-03-23T03:50:57;1.05;;;0.52;;
35971;SDS011;22052;0.000;0.000;2023-03-23T03:53:25;1.50;;;0.70;;
35971;SDS011;22052;0.000;0.000;2023-03-23T03:55:52;0.70;;;0.50;;
35971;SDS011;22052;0.000;0.000;2023-03-23T03:58:22;1.98;;;0.80;;
35971;SDS011;22052;0.000;0.000;2023-03-23T04:00:48;2.50;;;0.68;;
35971;SDS011;22052;0.000;0.000;2023-03-23T04:03:14;1.88;;;0.93;;
35971;SDS011;22052;0.000;0.000;2023-03-23T04:05:41;1.80;;;0.80;;
35971;SDS011;22052;0.000;0.000;2023-03-23T04:08:09;1.67;;;0.70;;
35971;SDS011;22052;0.000;0.000;2023-03-23T04:10:36;0.93;;;0.70;;
35971;SDS011;22052;0.000;0.000;2023-03-23T04:13:02;1.17;;;0.70;;
35971;SDS011;22052;0.000;0.000;2023-03-23T04:15:29;2.60;;;0.88;;
35971;SDS011;22052;0.000;0.000;2023-03-23T04:17:56;1.80;;;0.95;;
35971;SDS011;22052;0.000;0.000;2023-03-23T04:20:22;1.25;;;0.70;;
35971;SDS011;22052;0.000;0.000;2023-03-23T04:22:50;2.00;;;1.00;;
35971;SDS011;22052;0.000;0.000;2023-03-23T04:25:18;1.60;;;0.70;;
35971;SDS011;22052;0.000;0.000;2023-03-23T04:27:48;1.13;;;0.70;;
35971;SDS011;22052;0.000;0.000;2023-03-23T04:30:17;1.67;;;0.93;;
35971;SDS011;22052;0.000;0.000;2023-03-23T04:32:44;1.85;;;0.80;;
35971;SDS011;22052;0.000;0.000;2023-03-23T04:35:11;2.38;;;0.70;;
35971;SDS011;22052;0.000;0.000;2023-03-23T04:37:39;1.63;;;0.80;;
35971;SDS011;22052;0.000;0.000;2023-03-23T04:40:06;2.47;;;0.90;;
35971;SDS011;22052;0.000;0.000;2023-03-23T04:42:36;2.30;;;0.80;;
35971;SDS011;22052;0.000;0.000;2023-03-23T04:45:03;1.02;;;0.70;;
35971;SDS011;22052;0.000;0.000;2023-03-23T04:47:31;1.63;;;0.70;;
35971;SDS011;22052;0.000;0.000;2023-03-23T04:49:58;1.90;;;0.75;;
35971;SDS011;22052;0.000;0.000;2023-03-23T04:52:24;1.20;;;0.80;;
35971;SDS011;22052;0.000;0.000;2023-03-23T04:54:51;1.00;;;0.70;;
35971;SDS011;22052;0.000;0.000;2023-03-23T04:57:18;1.30;;;0.65;;
35971;SDS011;22052;0.000;0.000;2023-03-23T04:59:44;1.35;;;0.60;;
35971;SDS011;22052;0.000;0.000;2023-03-23T05:04:45;1.13;;;0.60;;
35971;SDS011;22052;0.000;0.000;2023-03-23T05:07:11;2.13;;;0.70;;
35971;SDS011;22052;0.000;0.000;2023-03-23T05:09:38;1.75;;;0.70;;
35971;SDS011;22052;0.000;0.000;2023-03-23T05:12:05;1.08;;;0.70;;
35971;SDS011;22052;0.000;0.000;2023-03-23T05:14:31;1.88;;;0.80;;
35971;SDS011;22052;0.000;0.000;2023-03-23T05:16:58;0.93;;;0.63;;
35971;SDS011;22052;0.000;0.000;2023-03-23T05:19:24;1.70;;;0.80;;
35971;SDS011;22052;0.000;0.000;2023-03-23T05:21:50;2.30;;;0.90;;
35971;SDS011;22052;0.000;0.000;2023-03-23T05:24:16;0.90;;;0.70;;
35971;SDS011;22052;0.000;0.000;2023-03-23T05:26:42;1.65;;;0.70;;
35971;SDS011;22052;0.000;0.000;2023-03-23T05:29:09;2.13;;;0.85;;
35971;SDS011;22052;0.000;0.000;2023-03-23T05:31:36;1.17;;;0.73;;
35971;SDS011;22052;0.000;0.000;2023-03-23T05:34:02;1.33;;;0.60;;
35971;SDS011;22052;0.000;0.000;2023-03-23T05:36:28;2.78;;;0.80;;
35971;SDS011;22052;0.000;0.000;2023-03-23T05:38:54;4.05;;;1.00;;
35971;SDS011;22052;0.000;0.000;2023-03-23T05:41:21;1.63;;;0.70;;
35971;SDS011;22052;0.000;0.000;2023-03-23T05:43:48;5.25;;;1.20;;
35971;SDS011;22052;0.000;0.000;2023-03-23T05:46:14;4.47;;;0.90;;
35971;SDS011;22052;0.000;0.000;2023-03-23T05:48:40;5.55;;;1.00;;
35971;SDS011;22052;0.000;0.000;2023-03-23T05:51:06;2.15;;;0.80;;
35971;SDS011;22052;0.000;0.000;2023-03-23T05:53:33;3.60;;;1.00;;
35971;SDS011;22052;0.000;0.000;2023-03-23T05:56:01;5.65;;;0.90;;
35971;SDS011;22052;0.000;0.000;2023-03-23T05:58:28;5.43;;;0.93;;
35971;SDS011;22052;0.000;0.000;2023-03-23T06:00:54;2.47;;;0.85;;
35971;SDS011;22052;0.000;0.000;2023-03-23T06:03:21;7.43;;;0.95;;
35971;SDS011;22052;0.000;0.000;2023-03-23T06:05:47;3.90;;;1.00;;
35971;SDS011;22052;0.000;0.000;2023-03-23T06:08:15;4.13;;;0.90;;
35971;SDS011;22052;0.000;0.000;2023-03-23T06:10:41;3.55;;;0.80;;
35971;SDS011;22052;0.000;0.000;2023-03-23T06:13:07;2.92;;;0.90;;
35971;SDS011;22052;0.000;0.000;2023-03-23T06:15:33;3.17;;;1.00;;
35971;SDS011;22052;0.000;0.000;2023-03-23T06:18:00;5.97;;;1.10;;
35971;SDS011;22052;0.000;0.000;2023-03-23T06:20:26;6.13;;;1.17;;
35971;SDS011;22052;0.000;0.000;2023-03-23T06:22:52;6.95;;;1.17;;
35971;SDS011;22052;0.000;0.000;2023-03-23T06:25:18;2.65;;;0.90;;
35971;SDS011;22052;0.000;0.000;2023-03-23T06:27:44;2.55;;;1.00;;
35971;SDS011;22052;0.000;0.000;2023-03-23T06:30:11;6.18;;;1.00;;
35971;SDS011;22052;0.000;0.000;2023-03-23T06:32:40;2.28;;;0.98;;
35971;SDS011;22052;0.000;0.000;2023-03-23T06:35:07;4.38;;;0.90;;
35971;SDS011;22052;0.000;0.000;2023-03-23T06:37:35;2.88;;;0.80;;
35971;SDS011;22052;0.000;0.000;2023-03-23T06:40:02;4.22;;;1.13;;
35971;SDS011;22052;0.000;0.000;2023-03-23T06:42:31;4.43;;;0.90;;
35971;SDS011;22052;0.000;0.000;2023-03-23T06:44:58;4.07;;;0.80;;
35971;SDS011;22052;0.000;0.000;2023-03-23T06:47:26;3.38;;;1.00;;
35971;SDS011;22052;0.000;0.000;2023-03-23T06:49:54;4.68;;;0.98;;
35971;SDS011;22052;0.000;0.000;2023-03-23T06:52:21;3.50;;;1.10;;
35971;SDS011;22052;0.000;0.000;2023-03-23T06:54:48;3.25;;;0.88;;
35971;SDS011;22052;0.000;0.000;2023-03-23T06:57:15;4.38;;;1.10;;
35971;SDS011;22052;0.000;0.000;2023-03-23T06:59:42;8.98;;;1.30;;
35971;SDS011;22052;0.000;0.000;2023-03-23T07:02:09;3.38;;;1.10;;
35971;SDS011;22052;0.000;0.000;2023-03-23T07:04:36;4.40;;;1.15;;
35971;SDS011;22052;0.000;0.000;2023-03-23T07:07:03;8.57;;;1.13;;
35971;SDS011;22052;0.000;0.000;2023-03-23T07:09:30;4.07;;;1.23;;
35971;SDS011;22052;0.000;0.000;2023-03-23T07:11:57;4.82;;;1.00;;
35971;SDS011;22052;0.000;0.000;2023-03-23T07:14:23;1.95;;;0.90;;
35971;SDS011;22052;0.000;0.000;2023-03-23T07:16:49;7.05;;;1.17;;
35971;SDS011;22052;0.000;0.000;2023-03-23T07:19:16;6.32;;;1.48;;
35971;SDS011;22052;0.000;0.000;2023-03-23T07:21:42;4.35;;;1.05;;
35971;SDS011;22052;0.000;0.000;2023-03-23T07:24:12;5.25;;;1.05;;
35971;SDS011;22052;0.000;0.000;2023-03-23T07:26:39;8.18;;;1.20;;
35971;SDS011;22052;0.000;0.000;2023-03-23T07:29:06;7.00;;;1.20;;
35971;SDS011;22052;0.000;0.000;2023-03-23T07:31:35;6.38;;;1.30;;
35971;SDS011;22052;0.000;0.000;2023-03-23T07:34:03;2.58;;;1.10;;
35971;SDS011;22052;0.000;0.000;2023-03-23T07:36:31;4.63;;;1.13;;
35971;SDS011;22052;0.000;0.000;2023-03-23T07:38:58;3.85;;;1.10;;
35971;SDS011;22052;0.000;0.000;2023-03-23T07:41:24;5.53;;;1.10;;
35971;SDS011;22052;0.000;0.000;2023-03-23T07:43:51;4.88;;;1.13;;
35971;SDS011;22052;0.000;0.000;2023-03-23T07:46:18;3.38;;;1.13;;
35971;SDS011;22052;0.000;0.000;2023-03-23T07:48:45;4.55;;;1.02;;
35971;SDS011;22052;0.000;0.000;2023-03-23T07:51:11;2.25;;;0.98;;
35971;SDS011;22052;0.000;0.000;2023-03-23T07:53:38;5.22;;;0.90;;
35971;SDS011;22052;0.000;0.000;2023-03-23T07:56:05;4.85;;;1.30;;
35971;SDS011;22052;0.000;0.000;2023-03-23T07:58:31;6.93;;;1.13;;
35971;SDS011;22052;0.000;0.000;2023-03-23T08:00:57;6.13;;;1.13;;
35971;SDS011;22052;0.000;0.000;2023-03-23T08:03:24;4.57;;;1.00;;
35971;SDS011;22052;0.000;0.000;2023-03-23T08:05:51;7.30;;;1.20;;
35971;SDS011;22052;0.000;0.000;2023-03-23T08:08:17;5.35;;;1.20;;
35971;SDS011;22052;0.000;0.000;2023-03-23T08:10:44;5.22;;;1.05;;
35971;SDS011;22052;0.000;0.000;2023-03-23T08:13:10;6.15;;;1.15;;
35971;SDS011;22052;0.000;0.000;2023-03-23T08:15:38;4.85;;;1.25;;
35971;SDS011;22052;0.000;0.000;2023-03-23T08:18:04;8.43;;;1.20;;
35971;SDS011;22052;0.000;0.000;2023-03-23T08:20:31;4.90;;;0.93;;
35971;SDS011;22052;0.000;0.000;2023-03-23T08:22:58;4.10;;;1.10;;
35971;SDS011;22052;0.000;0.000;2023-03-23T08:25:25;6.70;;;1.20;;
35971;SDS011;22052;0.000;0.000;2023-03-23T08:27:51;5.72;;;1.38;;
35971;SDS011;22052;0.000;0.000;2023-03-23T08:30:19;4.40;;;1.10;;
35971;SDS011;22052;0.000;0.000;2023-03-23T08:32:50;8.73;;;1.30;;
35971;SDS011;22052;0.000;0.000;2023-03-23T08:35:55;5.60;;;0.93;;
35971;SDS011;22052;0.000;0.000;2023-03-23T08:41:43;7.30;;;1.13;;
35971;SDS011;22052;0.000;0.000;2023-03-23T08:44:14;6.22;;;1.55;;
35971;SDS011;22052;0.000;0.000;2023-03-23T08:46:41;8.45;;;1.48;;
35971;SDS011;22052;0.000;0.000;2023-03-23T08:49:12;5.18;;;1.38;;
35971;SDS011;22052;0.000;0.000;2023-03-23T08:51:39;4.60;;;1.30;;
35971;SDS011;22052;0.000;0.000;2023-03-23T08:54:07;4.82;;;1.35;;
35971;SDS011;22052;0.000;0.000;2023-03-23T08:56:34;3.97;;;1.33;;
35971;SDS011;22052;0.000;0.000;2023-03-23T08:59:01;7.50;;;1.10;;
35971;SDS011;22052;0.000;0.000;2023-03-23T09:01:28;8.23;;;1.33;;
35971;SDS011;22052;0.000;0.000;2023-03-23T09:03:55;6.13;;;1.60;;
35971;SDS011;22052;0.000;0.000;2023-03-23T09:06:22;5.85;;;1.20;;
35971;SDS011;22052;0.000;0.000;2023-03-23T09:08:49;4.03;;;1.20;;
35971;SDS011;22052;0.000;0.000;2023-03-23T09:11:16;5.18;;;1.40;;
35971;SDS011;22052;0.000;0.000;2023-03-23T09:26:34;6.43;;;1.10;;
35971;SDS011;22052;0.000;0.000;2023-03-23T09:32:10;6.20;;;1.33;;
35971;SDS011;22052;0.000;0.000;2023-03-23T09:34:38;6.25;;;1.23;;
35971;SDS011;22052;0.000;0.000;2023-03-23T09:37:06;4.68;;;1.30;;
35971;SDS011;22052;0.000;0.000;2023-03-23T09:39:33;4.45;;;1.13;;
35971;SDS011;22052;0.000;0.000;2023-03-23T09:42:18;4.80;;;1.38;;
35971;SDS011;22052;0.000;0.000;2023-03-23T09:50:46;7.32;;;1.20;;
35971;SDS011;22052;0.000;0.000;2023-03-23T09:53:19;5.78;;;1.13;;
35971;SDS011;22052;0.000;0.000;2023-03-23T09:55:47;6.80;;;1.58;;
35971;SDS011;22052;0.000;0.000;2023-03-23T09:58:17;7.30;;;1.23;;
35971;SDS011;22052;0.000;0.000;2023-03-23T10:01:07;6.55;;;1.23;;
35971;SDS011;22052;0.000;0.000;2023-03-23T10:03:44;7.78;;;1.33;;
35971;SDS011;22052;0.000;0.000;2023-03-23T10:06:13;5.40;;;1.30;;
35971;SDS011;22052;0.000;0.000;2023-03-23T10:12:07;7.65;;;1.13;;
35971;SDS011;22052;0.000;0.000;2023-03-23T10:14:45;4.03;;;1.23;;
35971;SDS011;22052;0.000;0.000;2023-03-23T10:17:24;10.13;;;1.58;;
35971;SDS011;22052;0.000;0.000;2023-03-23T10:20:01;8.13;;;1.60;;
35971;SDS011;22052;0.000;0.000;2023-03-23T10:22:35;7.65;;;1.50;;
35971;SDS011;22052;0.000;0.000;2023-03-23T10:25:10;3.25;;;1.02;;
35971;SDS011;22052;0.000;0.000;2023-03-23T10:27:44;4.93;;;1.08;;
35971;SDS011;22052;0.000;0.000;2023-03-23T10:35:56;6.93;;;1.30;;
35971;SDS011;22052;0.000;0.000;2023-03-23T10:38:31;9.55;;;1.40;;
35971;SDS011;22052;0.000;0.000;2023-03-23T10:41:00;6.32;;;1.40;;
35971;SDS011;22052;0.000;0.000;2023-03-23T10:43:28;12.75;;;1.40;;
35971;SDS011;22052;0.000;0.000;2023-03-23T10:46:04;8.95;;;1.70;;
35971;SDS011;22052;0.000;0.000;2023-03-23T10:48:50;7.25;;;1.60;;
35971;SDS011;22052;0.000;0.000;2023-03-23T10:51:31;7.43;;;1.35;;
35971;SDS011;22052;0.000;0.000;2023-03-23T10:54:04;3.95;;;1.20;;
35971;SDS011;22052;0.000;0.000;2023-03-23T10:56:48;4.15;;;1.10;;
35971;SDS011;22052;0.000;0.000;2023-03-23T10:59:25;6.70;;;1.38;;
35971;SDS011;22052;0.000;0.000;2023-03-23T11:01:52;8.63;;;1.70;;
35971;SDS011;22052;0.000;0.000;2023-03-23T11:04:30;5.25;;;1.17;;
35971;SDS011;22052;0.000;0.000;2023-03-23T11:07:00;6.63;;;1.42;;
35971;SDS011;22052;0.000;0.000;2023-03-23T11:09:50;6.05;;;1.38;;
35971;SDS011;22052;0.000;0.000;2023-03-23T11:12:18;8.23;;;1.67;;
35971;SDS011;22052;0.000;0.000;2023-03-23T11:14:46;6.65;;;1.55;;
35971;SDS011;22052;0.000;0.000;2023-03-23T11:17:26;8.45;;;1.30;;
35971;SDS011;22052;0.000;0.000;2023-03-23T11:20:11;5.20;;;1.20;;
35971;SDS011;22052;0.000;0.000;2023-03-23T11:22:43;6.72;;;1.38;;
35971;SDS011;22052;0.000;0.000;2023-03-23T11:25:12;5.38;;;1.13;;
35971;SDS011;22052;0.000;0.000;2023-03-23T11:27:41;5.68;;;1.40;;
35971;SDS011;22052;0.000;0.000;2023-03-23T11:33:09;7.07;;;1.20;;
35971;SDS011;22052;0.000;0.000;2023-03-23T11:35:37;13.82;;;1.63;;
35971;SDS011;22052;0.000;0.000;2023-03-23T11:38:04;7.47;;;1.10;;
35971;SDS011;22052;0.000;0.000;2023-03-23T11:40:32;5.22;;;1.10;;
35971;SDS011;22052;0.000;0.000;2023-03-23T11:43:13;9.30;;;1.60;;
35971;SDS011;22052;0.000;0.000;2023-03-23T11:46:02;7.28;;;0.90;;
35971;SDS011;22052;0.000;0.000;2023-03-23T11:48:35;7.88;;;1.63;;
35971;SDS011;22052;0.000;0.000;2023-03-23T11:51:24;10.48;;;1.40;;
35971;SDS011;22052;0.000;0.000;2023-03-23T11:53:56;6.60;;;1.30;;
35971;SDS011;22052;0.000;0.000;2023-03-23T11:56:39;8.82;;;1.90;;
35971;SDS011;22052;0.000;0.000;2023-03-23T11:59:31;8.00;;;1.45;;
35971;SDS011;22052;0.000;0.000;2023-03-23T12:09:56;6.75;;;1.27;;
35971;SDS011;22052;0.000;0.000;2023-03-23T12:12:40;8.15;;;1.45;;
35971;SDS011;22052;0.000;0.000;2023-03-23T12:24:36;10.52;;;1.65;;
35971;SDS011;22052;0.000;0.000;2023-03-23T12:29:52;7.90;;;1.38;;
35971;SDS011;22052;0.000;0.000;2023-03-23T12:40:04;7.50;;;1.40;;
35971;SDS011;22052;0.000;0.000;2023-03-23T12:42:43;6.55;;;1.50;;
35971;SDS011;22052;0.000;0.000;2023-03-23T12:48:56;8.65;;;1.58;;
35971;SDS011;22052;0.000;0.000;2023-03-23T12:51:29;7.38;;;1.50;;
35971;SDS011;22052;0.000;0.000;2023-03-23T12:56:51;4.97;;;1.30;;
35971;SDS011;22052;0.000;0.000;2023-03-23T13:05:40;11.60;;;1.45;;
35971;SDS011;22052;0.000;0.000;2023-03-23T13:08:41;5.65;;;1.50;;
35971;SDS011;22052;0.000;0.000;2023-03-23T13:11:22;6.93;;;1.50;;
35971;SDS011;22052;0.000;0.000;2023-03-23T13:13:54;7.85;;;1.48;;
35971;SDS011;22052;0.000;0.000;2023-03-23T13:16:26;8.10;;;1.58;;
35971;SDS011;22052;0.000;0.000;2023-03-23T13:19:00;12.57;;;1.60;;
35971;SDS011;22052;0.000;0.000;2023-03-23T13:24:18;9.77;;;1.48;;
35971;SDS011;22052;0.000;0.000;2023-03-23T13:26:54;5.90;;;1.40;;
35971;SDS011;22052;0.000;0.000;2023-03-23T13:29:29;4.93;;;1.40;;
35971;SDS011;22052;0.000;0.000;2023-03-23T13:32:11;8.95;;;1.52;;
35971;SDS011;22052;0.000;0.000;2023-03-23T13:35:10;9.48;;;1.33;;
35971;SDS011;22052;0.000;0.000;2023-03-23T13:37:42;8.52;;;1.40;;
35971;SDS011;22052;0.000;0.000;2023-03-23T13:40:23;6.20;;;1.30;;
35971;SDS011;22052;0.000;0.000;2023-03-23T13:42:55;8.98;;;1.48;;
35971;SDS011;22052;0.000;0.000;2023-03-23T13:45:23;6.85;;;1.30;;
35971;SDS011;22052;0.000;0.000;2023-03-23T13:48:02;6.90;;;1.10;;
35971;SDS011;22052;0.000;0.000;2023-03-23T13:50:30;5.85;;;1.33;;
35971;SDS011;22052;0.000;0.000;2023-03-23T13:53:00;9.38;;;1.52;;
35971;SDS011;22052;0.000;0.000;2023-03-23T13:55:38;5.53;;;1.10;;
35971;SDS011;22052;0.000;0.000;2023-03-23T14:04:32;5.82;;;1.38;;
35971;SDS011;22052;0.000;0.000;2023-03-23T14:21:55;6.32;;;1.40;;
35971;SDS011;22052;0.000;0.000;2023-03-23T14:24:26;8.52;;;1.20;;
35971;SDS011;22052;0.000;0.000;2023-03-23T14:27:01;4.78;;;1.40;;
35971;SDS011;22052;0.000;0.000;2023-03-23T14:29:28;9.10;;;1.38;;
35971;SDS011;22052;0.000;0.000;2023-03-23T14:31:56;8.82;;;1.30;;
35971;SDS011;22052;0.000;0.000;2023-03-23T14:34:25;10.15;;;1.52;;
35971;SDS011;22052;0.000;0.000;2023-03-23T14:36:55;4.78;;;1.23;;
35971;SDS011;22052;0.000;0.000;2023-03-23T14:39:29;7.43;;;1.20;;
35971;SDS011;22052;0.000;0.000;2023-03-23T14:42:03;9.25;;;1.23;;
35971;SDS011;22052;0.000;0.000;2023-03-23T14:44:32;5.28;;;1.33;;
35971;SDS011;22052;0.000;0.000;2023-03-23T14:47:03;6.00;;;1.10;;
35971;SDS011;22052;0.000;0.000;2023-03-23T14:49:32;6.50;;;1.27;;
35971;SDS011;22052;0.000;0.000;2023-03-23T14:52:02;8.40;;;1.50;;
35971;SDS011;22052;0.000;0.000;2023-03-23T14:54:31;8.48;;;1.70;;
35971;SDS011;22052;0.000;0.000;2023-03-23T14:57:01;8.07;;;1.45;;
35971;SDS011;22052;0.000;0.000;2023-03-23T14:59:29;12.75;;;1.80;;
35971;SDS011;22052;0.000;0.000;2023-03-23T15:01:56;8.98;;;1.30;;
35971;SDS011;22052;0.000;0.000;2023-03-23T15:04:27;5.65;;;1.20;;
35971;SDS011;22052;0.000;0.000;2023-03-23T15:07:01;6.00;;;1.45;;
35971;SDS011;22052;0.000;0.000;2023-03-23T15:09:28;6.00;;;1.38;;
35971;SDS011;22052;0.000;0.000;2023-03-23T15:11:55;6.30;;;1.42;;
35971;SDS011;22052;0.000;0.000;2023-03-23T15:14:23;8.13;;;1.33;;
35971;SDS011;22052;0.000;0.000;2023-03-23T15:16:51;5.47;;;1.23;;
35971;SDS011;22052;0.000;0.000;2023-03-23T15:19:22;7.30;;;1.30;;
35971;SDS011;22052;0.000;0.000;2023-03-23T15:21:51;6.15;;;0.98;;
35971;SDS011;22052;0.000;0.000;2023-03-23T15:24:26;7.88;;;1.35;;
35971;SDS011;22052;0.000;0.000;2023-03-23T15:26:53;5.38;;;1.40;;
35971;SDS011;22052;0.000;0.000;2023-03-23T15:29:20;6.07;;;1.20;;
35971;SDS011;22052;0.000;0.000;2023-03-23T15:31:52;8.35;;;1.30;;
35971;SDS011;22052;0.000;0.000;2023-03-23T15:34:33;6.78;;;1.30;;
35971;SDS011;22052;0.000;0.000;2023-03-23T15:37:05;10.18;;;1.30;;
35971;SDS011;22052;0.000;0.000;2023-03-23T15:39:32;11.50;;;1.55;;
35971;SDS011;22052;0.000;0.000;2023-03-23T15:41:59;5.28;;;1.20;;
35971;SDS011;22052;0.000;0.000;2023-03-23T15:44:27;3.45;;;1.30;;
35971;SDS011;22052;0.000;0.000;2023-03-23T15:47:12;5.13;;;1.40;;
35971;SDS011;22052;0.000;0.000;2023-03-23T15:49:40;10.75;;;1.90;;
35971;SDS011;22052;0.000;0.000;2023-03-23T15:52:08;5.28;;;1.50;;
35971;SDS011;22052;0.000;0.000;2023-03-23T15:54:35;6.95;;;1.20;;
35971;SDS011;22052;0.000;0.000;2023-03-23T15:57:01;6.35;;;1.45;;
35971;SDS011;22052;0.000;0.000;2023-03-23T15:59:28;6.07;;;1.10;;
35971;SDS011;22052;0.000;0.000;2023-03-23T16:01:54;12.07;;;1.65;;
35971;SDS011;22052;0.000;0.000;2023-03-23T16:04:21;9.43;;;1.70;;
35971;SDS011;22052;0.000;0.000;2023-03-23T16:06:47;9.48;;;1.20;;
35971;SDS011;22052;0.000;0.000;2023-03-23T16:09:15;10.48;;;1.67;;
35971;SDS011;22052;0.000;0.000;2023-03-23T16:11:42;5.85;;;1.65;;
35971;SDS011;22052;0.000;0.000;2023-03-23T16:14:08;6.85;;;1.27;;
35971;SDS011;22052;0.000;0.000;2023-03-23T16:16:42;6.80;;;1.83;;
35971;SDS011;22052;0.000;0.000;2023-03-23T16:19:12;5.43;;;1.40;;
35971;SDS011;22052;0.000;0.000;2023-03-23T16:21:39;4.32;;;1.30;;
35971;SDS011;22052;0.000;0.000;2023-03-23T16:24:06;5.43;;;1.38;;
35971;SDS011;22052;0.000;0.000;2023-03-23T16:26:33;6.55;;;1.27;;
35971;SDS011;22052;0.000;0.000;2023-03-23T16:28:59;3.63;;;1.10;;
35971;SDS011;22052;0.000;0.000;2023-03-23T16:31:27;8.00;;;1.30;;
35971;SDS011;22052;0.000;0.000;2023-03-23T16:33:53;4.55;;;1.30;;
35971;SDS011;22052;0.000;0.000;2023-03-23T16:36:20;11.45;;;1.25;;
35971;SDS011;22052;0.000;0.000;2023-03-23T16:38:46;5.78;;;1.30;;
35971;SDS011;22052;0.000;0.000;2023-03-23T16:41:13;5.20;;;1.55;;
35971;SDS011;22052;0.000;0.000;2023-03-23T16:43:39;6.88;;;1.10;;
35971;SDS011;22052;0.000;0.000;2023-03-23T16:46:05;4.43;;;1.27;;
35971;SDS011;22052;0.000;0.000;2023-03-23T16:48:31;5.47;;;1.10;;
35971;SDS011;22052;0.000;0.000;2023-03-23T16:50:58;5.68;;;1.20;;
35971;SDS011;22052;0.000;0.000;2023-03-23T16:53:24;7.43;;;1.58;;
35971;SDS011;22052;0.000;0.000;2023-03-23T16:55:52;6.05;;;1.08;;
35971;SDS011;22052;0.000;0.000;2023-03-23T16:58:19;7.28;;;1.45;;
35971;SDS011;22052;0.000;0.000;2023-03-23T17:00:48;8.02;;;1.15;;
35971;SDS011;22052;0.000;0.000;2023-03-23T17:03:16;5.07;;;1.08;;
35971;SDS011;22052;0.000;0.000;2023-03-23T17:05:42;3.78;;;1.20;;
35971;SDS011;22052;0.000;0.000;2023-03-23T17:08:09;5.55;;;1.55;;
35971;SDS011;22052;0.000;0.000;2023-03-23T17:10:36;7.25;;;1.73;;
35971;SDS011;22052;0.000;0.000;2023-03-23T17:13:03;5.07;;;1.50;;
35971;SDS011;22052;0.000;0.000;2023-03-23T17:15:29;8.23;;;1.40;;
35971;SDS011;22052;0.000;0.000;2023-03-23T17:17:56;6.80;;;1.67;;
35971;SDS011;22052;0.000;0.000;2023-03-23T17:20:22;8.75;;;1.90;;
35971;SDS011;22052;0.000;0.000;2023-03-23T17:22:48;9.05;;;1.65;;